sensor_id;sensor_type;location;lat;lon;timestamp;P1;durP1;ratioP1;P2;durP2;ratioP2
3891;SDS011;1961;48.194;16.370;2022-10-17T00:01:40;82.30;;;35.77;;
3891;SDS011;1961;48.194;16.370;2022-10-17T00:04:06;82.87;;;35.63;;
3891;SDS011;1961;48.194;16.370;2022-10-17T00:06:32;87.93;;;36.93;;
3891;SDS011;1961;48.194;16.370;2022-10-17T00:08:58;92.87;;;36.77;;
3891;SDS011;1961;48.194;16.370;2022-10-17T00:11:25;86.63;;;36.27;;
3891;SDS011;1961;48.194;16.370;2022-10-17T00:13:53;88.90;;;36.27;;
3891;SDS011;1961;48.194;16.370;2022-10-17T00:16:26;82.50;;;35.60;;
3891;SDS011;1961;48.194;16.370;2022-10-17T00:18:52;84.10;;;35.37;;
3891;SDS011;1961;48.194;16.370;2022-10-17T00:21:19;91.73;;;38.63;;
3891;SDS011;1961;48.194;16.370;2022-10-17T00:23:46;84.33;;;36.13;;
3891;SDS011;1961;48.194;16.370;2022-10-17T00:26:12;89.57;;;36.87;;
3891;SDS011;1961;48.194;16.370;2022-10-17T00:28:39;89.83;;;36.53;;
3891;SDS011;1961;48.194;16.370;2022-10-17T00:31:05;86.00;;;36.40;;
3891;SDS011;1961;48.194;16.370;2022-10-17T00:33:33;91.07;;;38.67;;
3891;SDS011;1961;48.194;16.370;2022-10-17T00:36:06;90.90;;;36.67;;
3891;SDS011;1961;48.194;16.370;2022-10-17T00:38:33;87.63;;;37.50;;
3891;SDS011;1961;48.194;16.370;2022-10-17T00:40:59;87.10;;;37.90;;
3891;SDS011;1961;48.194;16.370;2022-10-17T00:43:26;89.00;;;36.37;;
3891;SDS011;1961;48.194;16.370;2022-10-17T00:45:53;92.13;;;37.57;;
3891;SDS011;1961;48.194;16.370;2022-10-17T00:48:20;91.70;;;38.50;;
3891;SDS011;1961;48.194;16.370;2022-10-17T00:50:47;84.87;;;36.07;;
3891;SDS011;1961;48.194;16.370;2022-10-17T00:53:15;91.47;;;37.53;;
3891;SDS011;1961;48.194;16.370;2022-10-17T00:55:47;93.13;;;39.50;;
3891;SDS011;1961;48.194;16.370;2022-10-17T00:58:14;91.17;;;37.17;;
3891;SDS011;1961;48.194;16.370;2022-10-17T01:00:41;91.20;;;38.30;;
3891;SDS011;1961;48.194;16.370;2022-10-17T01:03:07;90.97;;;38.97;;
3891;SDS011;1961;48.194;16.370;2022-10-17T01:05:34;89.13;;;37.70;;
3891;SDS011;1961;48.194;16.370;2022-10-17T01:08:00;96.40;;;40.30;;
3891;SDS011;1961;48.194;16.370;2022-10-17T01:13:29;84.20;;;36.23;;
3891;SDS011;1961;48.194;16.370;2022-10-17T01:21:45;93.17;;;40.00;;
3891;SDS011;1961;48.194;16.370;2022-10-17T01:24:40;95.63;;;39.87;;
3891;SDS011;1961;48.194;16.370;2022-10-17T01:32:11;89.10;;;36.40;;
3891;SDS011;1961;48.194;16.370;2022-10-17T01:34:41;87.30;;;37.00;;
3891;SDS011;1961;48.194;16.370;2022-10-17T01:37:15;86.40;;;36.60;;
3891;SDS011;1961;48.194;16.370;2022-10-17T01:39:47;85.73;;;36.67;;
3891;SDS011;1961;48.194;16.370;2022-10-17T01:44:46;87.90;;;36.40;;
3891;SDS011;1961;48.194;16.370;2022-10-17T01:47:16;88.20;;;37.00;;
3891;SDS011;1961;48.194;16.370;2022-10-17T01:49:44;87.97;;;37.27;;
3891;SDS011;1961;48.194;16.370;2022-10-17T01:52:13;89.17;;;38.17;;
3891;SDS011;1961;48.194;16.370;2022-10-17T01:54:47;92.27;;;38.87;;
3891;SDS011;1961;48.194;16.370;2022-10-17T01:57:17;99.67;;;37.00;;
3891;SDS011;1961;48.194;16.370;2022-10-17T01:59:46;91.63;;;36.37;;
3891;SDS011;1961;48.194;16.370;2022-10-17T02:02:13;85.87;;;36.83;;
3891;SDS011;1961;48.194;16.370;2022-10-17T02:04:41;89.60;;;38.27;;
3891;SDS011;1961;48.194;16.370;2022-10-17T02:07:07;87.50;;;36.93;;
3891;SDS011;1961;48.194;16.370;2022-10-17T02:09:34;92.47;;;36.00;;
3891;SDS011;1961;48.194;16.370;2022-10-17T02:17:57;85.07;;;37.73;;
3891;SDS011;1961;48.194;16.370;2022-10-17T02:20:20;85.37;;;36.00;;
3891;SDS011;1961;48.194;16.370;2022-10-17T02:25:21;90.40;;;36.60;;
3891;SDS011;1961;48.194;16.370;2022-10-17T02:27:52;87.43;;;35.77;;
3891;SDS011;1961;48.194;16.370;2022-10-17T02:33:32;88.90;;;36.10;;
3891;SDS011;1961;48.194;16.370;2022-10-17T02:35:34;91.33;;;37.13;;
3891;SDS011;1961;48.194;16.370;2022-10-17T02:38:01;85.47;;;37.13;;
3891;SDS011;1961;48.194;16.370;2022-10-17T02:40:28;89.63;;;37.67;;
3891;SDS011;1961;48.194;16.370;2022-10-17T02:42:55;85.77;;;36.63;;
3891;SDS011;1961;48.194;16.370;2022-10-17T02:45:25;90.90;;;36.10;;
3891;SDS011;1961;48.194;16.370;2022-10-17T02:48:01;87.30;;;37.27;;
3891;SDS011;1961;48.194;16.370;2022-10-17T02:50:39;85.20;;;36.93;;
3891;SDS011;1961;48.194;16.370;2022-10-17T02:53:11;91.40;;;38.43;;
3891;SDS011;1961;48.194;16.370;2022-10-17T02:55:41;87.40;;;36.83;;
3891;SDS011;1961;48.194;16.370;2022-10-17T02:58:28;89.00;;;37.97;;
3891;SDS011;1961;48.194;16.370;2022-10-17T03:00:58;85.83;;;35.63;;
3891;SDS011;1961;48.194;16.370;2022-10-17T03:03:29;84.50;;;35.07;;
3891;SDS011;1961;48.194;16.370;2022-10-17T03:05:55;89.20;;;37.47;;
3891;SDS011;1961;48.194;16.370;2022-10-17T03:08:22;87.03;;;36.30;;
3891;SDS011;1961;48.194;16.370;2022-10-17T03:10:48;83.07;;;35.80;;
3891;SDS011;1961;48.194;16.370;2022-10-17T03:13:15;87.07;;;36.30;;
3891;SDS011;1961;48.194;16.370;2022-10-17T03:15:41;84.97;;;36.30;;
3891;SDS011;1961;48.194;16.370;2022-10-17T03:18:08;90.83;;;37.73;;
3891;SDS011;1961;48.194;16.370;2022-10-17T03:20:34;83.97;;;35.87;;
3891;SDS011;1961;48.194;16.370;2022-10-17T03:23:00;88.80;;;37.47;;
3891;SDS011;1961;48.194;16.370;2022-10-17T03:25:26;86.37;;;36.50;;
3891;SDS011;1961;48.194;16.370;2022-10-17T03:27:52;86.83;;;37.03;;
3891;SDS011;1961;48.194;16.370;2022-10-17T03:30:19;87.70;;;37.70;;
3891;SDS011;1961;48.194;16.370;2022-10-17T03:32:45;85.13;;;36.07;;
3891;SDS011;1961;48.194;16.370;2022-10-17T03:35:11;88.73;;;35.90;;
3891;SDS011;1961;48.194;16.370;2022-10-17T03:37:39;84.83;;;35.97;;
3891;SDS011;1961;48.194;16.370;2022-10-17T03:40:05;85.10;;;35.37;;
3891;SDS011;1961;48.194;16.370;2022-10-17T03:42:31;85.33;;;36.00;;
3891;SDS011;1961;48.194;16.370;2022-10-17T03:44:58;84.13;;;34.30;;
3891;SDS011;1961;48.194;16.370;2022-10-17T03:47:24;80.53;;;34.50;;
3891;SDS011;1961;48.194;16.370;2022-10-17T03:49:50;84.40;;;36.43;;
3891;SDS011;1961;48.194;16.370;2022-10-17T03:52:17;83.23;;;33.73;;
3891;SDS011;1961;48.194;16.370;2022-10-17T03:54:44;84.17;;;34.57;;
3891;SDS011;1961;48.194;16.370;2022-10-17T03:57:10;86.10;;;37.07;;
3891;SDS011;1961;48.194;16.370;2022-10-17T03:59:37;82.87;;;35.07;;
3891;SDS011;1961;48.194;16.370;2022-10-17T04:02:03;83.57;;;35.40;;
3891;SDS011;1961;48.194;16.370;2022-10-17T04:04:29;84.10;;;35.10;;
3891;SDS011;1961;48.194;16.370;2022-10-17T04:06:56;83.80;;;34.80;;
3891;SDS011;1961;48.194;16.370;2022-10-17T04:09:22;90.30;;;36.90;;
3891;SDS011;1961;48.194;16.370;2022-10-17T04:11:48;84.07;;;35.90;;
3891;SDS011;1961;48.194;16.370;2022-10-17T04:14:14;84.00;;;35.77;;
3891;SDS011;1961;48.194;16.370;2022-10-17T04:16:40;86.37;;;35.70;;
3891;SDS011;1961;48.194;16.370;2022-10-17T04:19:08;82.40;;;35.23;;
3891;SDS011;1961;48.194;16.370;2022-10-17T04:21:36;82.70;;;35.50;;
3891;SDS011;1961;48.194;16.370;2022-10-17T04:24:03;85.17;;;35.50;;
3891;SDS011;1961;48.194;16.370;2022-10-17T04:26:29;85.63;;;35.10;;
3891;SDS011;1961;48.194;16.370;2022-10-17T04:28:55;81.60;;;34.40;;
3891;SDS011;1961;48.194;16.370;2022-10-17T04:31:21;88.43;;;37.03;;
3891;SDS011;1961;48.194;16.370;2022-10-17T04:33:48;83.33;;;35.90;;
3891;SDS011;1961;48.194;16.370;2022-10-17T04:36:16;87.13;;;36.10;;
3891;SDS011;1961;48.194;16.370;2022-10-17T04:38:42;83.83;;;35.10;;
3891;SDS011;1961;48.194;16.370;2022-10-17T04:41:10;84.57;;;36.17;;
3891;SDS011;1961;48.194;16.370;2022-10-17T04:43:37;84.67;;;34.43;;
3891;SDS011;1961;48.194;16.370;2022-10-17T04:46:06;83.53;;;33.87;;
3891;SDS011;1961;48.194;16.370;2022-10-17T04:48:32;82.77;;;34.47;;
3891;SDS011;1961;48.194;16.370;2022-10-17T04:50:59;83.03;;;34.17;;
3891;SDS011;1961;48.194;16.370;2022-10-17T04:53:26;89.00;;;35.50;;
3891;SDS011;1961;48.194;16.370;2022-10-17T04:55:53;80.83;;;34.53;;
3891;SDS011;1961;48.194;16.370;2022-10-17T04:58:19;81.33;;;31.70;;
3891;SDS011;1961;48.194;16.370;2022-10-17T05:00:45;86.70;;;33.20;;
3891;SDS011;1961;48.194;16.370;2022-10-17T05:03:11;94.90;;;36.17;;
3891;SDS011;1961;48.194;16.370;2022-10-17T05:05:38;98.03;;;36.80;;
3891;SDS011;1961;48.194;16.370;2022-10-17T05:08:05;97.70;;;40.87;;
3891;SDS011;1961;48.194;16.370;2022-10-17T05:10:36;101.47;;;43.63;;
3891;SDS011;1961;48.194;16.370;2022-10-17T05:13:02;104.73;;;43.70;;
3891;SDS011;1961;48.194;16.370;2022-10-17T05:15:28;84.60;;;33.10;;
3891;SDS011;1961;48.194;16.370;2022-10-17T05:17:55;91.17;;;35.60;;
3891;SDS011;1961;48.194;16.370;2022-10-17T05:20:22;88.97;;;34.07;;
3891;SDS011;1961;48.194;16.370;2022-10-17T05:22:49;94.00;;;37.87;;
3891;SDS011;1961;48.194;16.370;2022-10-17T05:25:15;87.83;;;35.80;;
3891;SDS011;1961;48.194;16.370;2022-10-17T05:27:42;91.67;;;36.17;;
3891;SDS011;1961;48.194;16.370;2022-10-17T05:30:08;93.87;;;39.13;;
3891;SDS011;1961;48.194;16.370;2022-10-17T05:32:34;96.10;;;40.37;;
3891;SDS011;1961;48.194;16.370;2022-10-17T05:35:01;90.03;;;36.70;;
3891;SDS011;1961;48.194;16.370;2022-10-17T05:37:29;94.60;;;37.57;;
3891;SDS011;1961;48.194;16.370;2022-10-17T05:39:55;87.07;;;35.47;;
3891;SDS011;1961;48.194;16.370;2022-10-17T05:42:21;84.90;;;33.90;;
3891;SDS011;1961;48.194;16.370;2022-10-17T05:44:48;83.10;;;33.60;;
3891;SDS011;1961;48.194;16.370;2022-10-17T05:47:15;78.93;;;32.90;;
3891;SDS011;1961;48.194;16.370;2022-10-17T05:49:45;78.70;;;31.30;;
3891;SDS011;1961;48.194;16.370;2022-10-17T05:52:11;78.20;;;30.80;;
3891;SDS011;1961;48.194;16.370;2022-10-17T05:54:37;79.53;;;31.10;;
3891;SDS011;1961;48.194;16.370;2022-10-17T05:57:03;79.87;;;31.00;;
3891;SDS011;1961;48.194;16.370;2022-10-17T05:59:29;80.40;;;30.10;;
3891;SDS011;1961;48.194;16.370;2022-10-17T06:01:56;86.10;;;34.20;;
3891;SDS011;1961;48.194;16.370;2022-10-17T06:04:22;89.00;;;36.73;;
3891;SDS011;1961;48.194;16.370;2022-10-17T06:06:48;90.87;;;37.13;;
3891;SDS011;1961;48.194;16.370;2022-10-17T06:09:15;96.77;;;40.93;;
3891;SDS011;1961;48.194;16.370;2022-10-17T06:11:41;73.33;;;29.50;;
3891;SDS011;1961;48.194;16.370;2022-10-17T06:14:07;72.70;;;28.70;;
3891;SDS011;1961;48.194;16.370;2022-10-17T06:16:33;75.10;;;29.20;;
3891;SDS011;1961;48.194;16.370;2022-10-17T06:18:59;75.10;;;29.27;;
3891;SDS011;1961;48.194;16.370;2022-10-17T06:21:26;69.70;;;29.27;;
3891;SDS011;1961;48.194;16.370;2022-10-17T06:23:52;72.53;;;27.53;;
3891;SDS011;1961;48.194;16.370;2022-10-17T06:26:19;69.90;;;25.90;;
3891;SDS011;1961;48.194;16.370;2022-10-17T06:28:46;76.57;;;27.80;;
3891;SDS011;1961;48.194;16.370;2022-10-17T06:31:15;74.60;;;29.13;;
3891;SDS011;1961;48.194;16.370;2022-10-17T06:33:42;74.20;;;30.20;;
3891;SDS011;1961;48.194;16.370;2022-10-17T06:36:09;78.57;;;31.43;;
3891;SDS011;1961;48.194;16.370;2022-10-17T06:38:36;72.93;;;27.90;;
3891;SDS011;1961;48.194;16.370;2022-10-17T06:41:05;78.87;;;30.70;;
3891;SDS011;1961;48.194;16.370;2022-10-17T06:43:35;89.93;;;36.03;;
3891;SDS011;1961;48.194;16.370;2022-10-17T06:46:02;78.03;;;29.83;;
3891;SDS011;1961;48.194;16.370;2022-10-17T06:48:29;84.63;;;30.43;;
3891;SDS011;1961;48.194;16.370;2022-10-17T06:51:02;74.80;;;28.47;;
3891;SDS011;1961;48.194;16.370;2022-10-17T06:53:29;71.93;;;27.77;;
3891;SDS011;1961;48.194;16.370;2022-10-17T06:55:55;67.10;;;26.27;;
3891;SDS011;1961;48.194;16.370;2022-10-17T06:58:29;81.23;;;32.40;;
3891;SDS011;1961;48.194;16.370;2022-10-17T07:01:09;72.07;;;27.40;;
3891;SDS011;1961;48.194;16.370;2022-10-17T07:03:35;72.67;;;27.60;;
3891;SDS011;1961;48.194;16.370;2022-10-17T07:06:02;71.07;;;25.60;;
3891;SDS011;1961;48.194;16.370;2022-10-17T07:08:29;73.97;;;27.33;;
3891;SDS011;1961;48.194;16.370;2022-10-17T07:10:56;70.83;;;28.70;;
3891;SDS011;1961;48.194;16.370;2022-10-17T07:13:22;85.03;;;33.17;;
3891;SDS011;1961;48.194;16.370;2022-10-17T07:15:48;68.43;;;26.53;;
3891;SDS011;1961;48.194;16.370;2022-10-17T07:18:15;74.93;;;26.93;;
3891;SDS011;1961;48.194;16.370;2022-10-17T07:20:41;73.87;;;29.77;;
3891;SDS011;1961;48.194;16.370;2022-10-17T07:23:07;70.00;;;27.27;;
3891;SDS011;1961;48.194;16.370;2022-10-17T07:25:33;72.50;;;28.03;;
3891;SDS011;1961;48.194;16.370;2022-10-17T07:28:00;67.13;;;26.50;;
3891;SDS011;1961;48.194;16.370;2022-10-17T07:30:26;69.70;;;27.00;;
3891;SDS011;1961;48.194;16.370;2022-10-17T07:32:53;70.50;;;26.67;;
3891;SDS011;1961;48.194;16.370;2022-10-17T07:35:19;70.13;;;26.10;;
3891;SDS011;1961;48.194;16.370;2022-10-17T07:37:46;71.83;;;27.50;;
3891;SDS011;1961;48.194;16.370;2022-10-17T07:40:12;71.77;;;28.63;;
3891;SDS011;1961;48.194;16.370;2022-10-17T07:42:39;71.17;;;27.33;;
3891;SDS011;1961;48.194;16.370;2022-10-17T07:45:05;78.07;;;28.30;;
3891;SDS011;1961;48.194;16.370;2022-10-17T07:47:31;68.47;;;25.93;;
3891;SDS011;1961;48.194;16.370;2022-10-17T07:50:00;71.13;;;26.43;;
3891;SDS011;1961;48.194;16.370;2022-10-17T07:52:26;65.50;;;25.33;;
3891;SDS011;1961;48.194;16.370;2022-10-17T07:54:53;67.33;;;24.73;;
3891;SDS011;1961;48.194;16.370;2022-10-17T07:57:19;69.97;;;24.93;;
3891;SDS011;1961;48.194;16.370;2022-10-17T07:59:45;72.60;;;27.80;;
3891;SDS011;1961;48.194;16.370;2022-10-17T08:02:30;71.27;;;27.77;;
3891;SDS011;1961;48.194;16.370;2022-10-17T08:04:56;67.57;;;25.27;;
3891;SDS011;1961;48.194;16.370;2022-10-17T08:07:22;73.73;;;25.87;;
3891;SDS011;1961;48.194;16.370;2022-10-17T08:09:48;70.80;;;26.13;;
3891;SDS011;1961;48.194;16.370;2022-10-17T08:12:15;72.03;;;27.77;;
3891;SDS011;1961;48.194;16.370;2022-10-17T08:14:41;68.97;;;26.20;;
3891;SDS011;1961;48.194;16.370;2022-10-17T08:17:08;67.70;;;26.23;;
3891;SDS011;1961;48.194;16.370;2022-10-17T08:19:40;70.50;;;25.60;;
3891;SDS011;1961;48.194;16.370;2022-10-17T08:22:07;69.20;;;26.33;;
3891;SDS011;1961;48.194;16.370;2022-10-17T08:24:33;66.83;;;25.20;;
3891;SDS011;1961;48.194;16.370;2022-10-17T08:26:59;69.27;;;24.40;;
3891;SDS011;1961;48.194;16.370;2022-10-17T08:29:26;68.80;;;25.50;;
3891;SDS011;1961;48.194;16.370;2022-10-17T08:31:52;73.13;;;25.80;;
3891;SDS011;1961;48.194;16.370;2022-10-17T08:34:18;73.60;;;26.10;;
3891;SDS011;1961;48.194;16.370;2022-10-17T08:36:44;64.13;;;25.73;;
3891;SDS011;1961;48.194;16.370;2022-10-17T08:39:10;65.60;;;25.57;;
3891;SDS011;1961;48.194;16.370;2022-10-17T08:41:40;71.47;;;26.30;;
3891;SDS011;1961;48.194;16.370;2022-10-17T08:44:29;69.77;;;25.67;;
3891;SDS011;1961;48.194;16.370;2022-10-17T08:46:57;71.10;;;27.00;;
3891;SDS011;1961;48.194;16.370;2022-10-17T08:49:47;74.80;;;27.00;;
3891;SDS011;1961;48.194;16.370;2022-10-17T08:52:54;70.27;;;26.27;;
3891;SDS011;1961;48.194;16.370;2022-10-17T08:55:07;72.10;;;27.20;;
3891;SDS011;1961;48.194;16.370;2022-10-17T08:57:38;70.27;;;27.60;;
3891;SDS011;1961;48.194;16.370;2022-10-17T09:00:06;70.30;;;26.73;;
3891;SDS011;1961;48.194;16.370;2022-10-17T09:13:04;71.63;;;27.47;;
3891;SDS011;1961;48.194;16.370;2022-10-17T09:15:40;69.60;;;26.90;;
3891;SDS011;1961;48.194;16.370;2022-10-17T09:20:44;71.67;;;28.03;;
3891;SDS011;1961;48.194;16.370;2022-10-17T09:23:18;68.87;;;26.77;;
3891;SDS011;1961;48.194;16.370;2022-10-17T09:25:46;71.60;;;27.70;;
3891;SDS011;1961;48.194;16.370;2022-10-17T09:28:21;68.47;;;27.00;;
3891;SDS011;1961;48.194;16.370;2022-10-17T09:31:31;70.33;;;26.20;;
3891;SDS011;1961;48.194;16.370;2022-10-17T09:33:41;70.80;;;28.10;;
3891;SDS011;1961;48.194;16.370;2022-10-17T09:36:09;76.33;;;27.93;;
3891;SDS011;1961;48.194;16.370;2022-10-17T09:38:38;73.50;;;27.43;;
3891;SDS011;1961;48.194;16.370;2022-10-17T09:41:06;71.77;;;29.97;;
3891;SDS011;1961;48.194;16.370;2022-10-17T09:43:37;77.50;;;31.40;;
3891;SDS011;1961;48.194;16.370;2022-10-17T09:46:06;73.10;;;29.10;;
3891;SDS011;1961;48.194;16.370;2022-10-17T09:48:37;74.67;;;29.73;;
3891;SDS011;1961;48.194;16.370;2022-10-17T09:51:04;76.20;;;29.17;;
3891;SDS011;1961;48.194;16.370;2022-10-17T09:53:36;79.60;;;29.97;;
3891;SDS011;1961;48.194;16.370;2022-10-17T09:56:06;81.70;;;29.07;;
3891;SDS011;1961;48.194;16.370;2022-10-17T09:58:40;74.00;;;28.97;;
3891;SDS011;1961;48.194;16.370;2022-10-17T10:03:41;74.23;;;30.20;;
3891;SDS011;1961;48.194;16.370;2022-10-17T10:06:17;71.83;;;28.27;;
3891;SDS011;1961;48.194;16.370;2022-10-17T10:11:16;74.23;;;27.60;;
3891;SDS011;1961;48.194;16.370;2022-10-17T10:13:43;68.07;;;26.13;;
3891;SDS011;1961;48.194;16.370;2022-10-17T10:18:42;65.93;;;25.13;;
3891;SDS011;1961;48.194;16.370;2022-10-17T10:21:27;72.13;;;28.10;;
3891;SDS011;1961;48.194;16.370;2022-10-17T10:29:03;73.60;;;29.03;;
3891;SDS011;1961;48.194;16.370;2022-10-17T10:31:31;66.60;;;26.57;;
3891;SDS011;1961;48.194;16.370;2022-10-17T10:33:59;72.60;;;26.83;;
3891;SDS011;1961;48.194;16.370;2022-10-17T10:36:40;71.10;;;26.90;;
3891;SDS011;1961;48.194;16.370;2022-10-17T10:39:07;68.07;;;24.87;;
3891;SDS011;1961;48.194;16.370;2022-10-17T10:41:45;67.40;;;25.60;;
3891;SDS011;1961;48.194;16.370;2022-10-17T10:44:13;63.60;;;24.57;;
3891;SDS011;1961;48.194;16.370;2022-10-17T10:46:40;67.93;;;25.90;;
3891;SDS011;1961;48.194;16.370;2022-10-17T10:49:07;75.63;;;26.00;;
3891;SDS011;1961;48.194;16.370;2022-10-17T10:51:52;73.23;;;25.70;;
3891;SDS011;1961;48.194;16.370;2022-10-17T10:56:55;68.37;;;24.43;;
3891;SDS011;1961;48.194;16.370;2022-10-17T10:59:30;68.30;;;25.03;;
3891;SDS011;1961;48.194;16.370;2022-10-17T11:04:46;66.37;;;25.70;;
3891;SDS011;1961;48.194;16.370;2022-10-17T11:07:19;64.20;;;24.10;;
3891;SDS011;1961;48.194;16.370;2022-10-17T11:12:18;65.87;;;24.43;;
3891;SDS011;1961;48.194;16.370;2022-10-17T11:14:48;64.80;;;25.17;;
3891;SDS011;1961;48.194;16.370;2022-10-17T11:19:51;64.47;;;23.20;;
3891;SDS011;1961;48.194;16.370;2022-10-17T11:22:28;72.30;;;24.90;;
3891;SDS011;1961;48.194;16.370;2022-10-17T11:24:57;68.20;;;23.87;;
3891;SDS011;1961;48.194;16.370;2022-10-17T11:27:28;69.80;;;24.87;;
3891;SDS011;1961;48.194;16.370;2022-10-17T11:29:55;63.27;;;23.00;;
3891;SDS011;1961;48.194;16.370;2022-10-17T11:34:55;64.73;;;24.50;;
3891;SDS011;1961;48.194;16.370;2022-10-17T11:37:25;62.87;;;22.70;;
3891;SDS011;1961;48.194;16.370;2022-10-17T11:39:56;63.80;;;23.47;;
3891;SDS011;1961;48.194;16.370;2022-10-17T11:42:25;66.30;;;24.00;;
3891;SDS011;1961;48.194;16.370;2022-10-17T11:44:54;69.00;;;22.07;;
3891;SDS011;1961;48.194;16.370;2022-10-17T11:47:38;62.07;;;21.97;;
3891;SDS011;1961;48.194;16.370;2022-10-17T11:50:15;67.73;;;23.80;;
3891;SDS011;1961;48.194;16.370;2022-10-17T11:52:45;65.93;;;21.40;;
3891;SDS011;1961;48.194;16.370;2022-10-17T11:55:15;73.63;;;30.23;;
3891;SDS011;1961;48.194;16.370;2022-10-17T11:57:47;63.60;;;23.00;;
3891;SDS011;1961;48.194;16.370;2022-10-17T12:00:29;67.60;;;24.80;;
3891;SDS011;1961;48.194;16.370;2022-10-17T12:02:59;60.13;;;21.63;;
3891;SDS011;1961;48.194;16.370;2022-10-17T12:11:06;59.30;;;20.90;;
3891;SDS011;1961;48.194;16.370;2022-10-17T12:18:48;61.77;;;21.87;;
3891;SDS011;1961;48.194;16.370;2022-10-17T12:21:16;64.80;;;22.73;;
3891;SDS011;1961;48.194;16.370;2022-10-17T12:23:50;60.20;;;21.67;;
3891;SDS011;1961;48.194;16.370;2022-10-17T12:26:24;58.17;;;20.40;;
3891;SDS011;1961;48.194;16.370;2022-10-17T12:28:51;59.67;;;21.17;;
3891;SDS011;1961;48.194;16.370;2022-10-17T12:33:50;57.80;;;19.93;;
3891;SDS011;1961;48.194;16.370;2022-10-17T12:38:43;60.03;;;20.27;;
3891;SDS011;1961;48.194;16.370;2022-10-17T12:41:09;63.53;;;21.50;;
3891;SDS011;1961;48.194;16.370;2022-10-17T12:43:36;59.13;;;21.90;;
3891;SDS011;1961;48.194;16.370;2022-10-17T12:46:07;58.00;;;20.17;;
3891;SDS011;1961;48.194;16.370;2022-10-17T12:51:10;59.60;;;19.87;;
3891;SDS011;1961;48.194;16.370;2022-10-17T12:56:12;57.10;;;19.47;;
3891;SDS011;1961;48.194;16.370;2022-10-17T12:58:43;54.87;;;18.13;;
3891;SDS011;1961;48.194;16.370;2022-10-17T13:01:15;58.13;;;19.93;;
3891;SDS011;1961;48.194;16.370;2022-10-17T13:03:42;59.47;;;19.43;;
3891;SDS011;1961;48.194;16.370;2022-10-17T13:06:11;62.60;;;19.30;;
3891;SDS011;1961;48.194;16.370;2022-10-17T13:08:43;57.67;;;19.13;;
3891;SDS011;1961;48.194;16.370;2022-10-17T13:11:09;61.43;;;22.07;;
3891;SDS011;1961;48.194;16.370;2022-10-17T13:13:48;61.50;;;22.43;;
3891;SDS011;1961;48.194;16.370;2022-10-17T13:16:33;56.60;;;18.40;;
3891;SDS011;1961;48.194;16.370;2022-10-17T13:19:00;57.40;;;18.30;;
3891;SDS011;1961;48.194;16.370;2022-10-17T13:21:27;56.50;;;18.57;;
3891;SDS011;1961;48.194;16.370;2022-10-17T13:23:53;59.57;;;18.30;;
3891;SDS011;1961;48.194;16.370;2022-10-17T13:26:26;60.10;;;19.37;;
3891;SDS011;1961;48.194;16.370;2022-10-17T13:29:12;57.57;;;18.73;;
3891;SDS011;1961;48.194;16.370;2022-10-17T13:31:40;55.63;;;18.40;;
3891;SDS011;1961;48.194;16.370;2022-10-17T13:37:00;56.03;;;17.93;;
3891;SDS011;1961;48.194;16.370;2022-10-17T13:39:28;55.73;;;17.10;;
3891;SDS011;1961;48.194;16.370;2022-10-17T13:41:55;64.13;;;21.17;;
3891;SDS011;1961;48.194;16.370;2022-10-17T13:44:23;57.93;;;18.90;;
3891;SDS011;1961;48.194;16.370;2022-10-17T13:46:51;56.97;;;18.47;;
3891;SDS011;1961;48.194;16.370;2022-10-17T13:51:44;59.80;;;19.80;;
3891;SDS011;1961;48.194;16.370;2022-10-17T13:54:44;72.70;;;30.33;;
3891;SDS011;1961;48.194;16.370;2022-10-17T13:57:05;54.77;;;17.00;;
3891;SDS011;1961;48.194;16.370;2022-10-17T13:59:38;55.93;;;16.97;;
3891;SDS011;1961;48.194;16.370;2022-10-17T14:02:05;59.97;;;21.60;;
3891;SDS011;1961;48.194;16.370;2022-10-17T14:04:37;58.43;;;17.37;;
3891;SDS011;1961;48.194;16.370;2022-10-17T14:07:04;55.97;;;17.13;;
3891;SDS011;1961;48.194;16.370;2022-10-17T14:09:31;53.50;;;16.60;;
3891;SDS011;1961;48.194;16.370;2022-10-17T14:12:01;55.80;;;17.77;;
3891;SDS011;1961;48.194;16.370;2022-10-17T14:14:28;53.57;;;16.90;;
3891;SDS011;1961;48.194;16.370;2022-10-17T14:16:55;55.40;;;17.80;;
3891;SDS011;1961;48.194;16.370;2022-10-17T14:21:52;59.50;;;18.40;;
3891;SDS011;1961;48.194;16.370;2022-10-17T14:29:19;55.80;;;17.97;;
3891;SDS011;1961;48.194;16.370;2022-10-17T14:31:46;54.30;;;17.73;;
3891;SDS011;1961;48.194;16.370;2022-10-17T14:34:15;53.90;;;16.27;;
3891;SDS011;1961;48.194;16.370;2022-10-17T14:36:44;55.00;;;17.50;;
3891;SDS011;1961;48.194;16.370;2022-10-17T14:39:20;54.37;;;17.13;;
3891;SDS011;1961;48.194;16.370;2022-10-17T14:41:56;58.60;;;19.10;;
3891;SDS011;1961;48.194;16.370;2022-10-17T14:46:53;53.37;;;16.10;;
3891;SDS011;1961;48.194;16.370;2022-10-17T14:49:25;55.57;;;18.37;;
3891;SDS011;1961;48.194;16.370;2022-10-17T14:52:12;54.63;;;17.60;;
3891;SDS011;1961;48.194;16.370;2022-10-17T14:54:49;54.20;;;16.73;;
3891;SDS011;1961;48.194;16.370;2022-10-17T14:57:26;55.30;;;17.70;;
3891;SDS011;1961;48.194;16.370;2022-10-17T14:59:56;53.67;;;17.10;;
3891;SDS011;1961;48.194;16.370;2022-10-17T15:02:23;58.40;;;16.60;;
3891;SDS011;1961;48.194;16.370;2022-10-17T15:04:50;53.67;;;16.60;;
3891;SDS011;1961;48.194;16.370;2022-10-17T15:07:16;54.60;;;17.47;;
3891;SDS011;1961;48.194;16.370;2022-10-17T15:09:43;52.33;;;16.47;;
3891;SDS011;1961;48.194;16.370;2022-10-17T15:12:13;54.20;;;15.83;;
3891;SDS011;1961;48.194;16.370;2022-10-17T15:14:39;51.77;;;15.30;;
3891;SDS011;1961;48.194;16.370;2022-10-17T15:17:17;51.33;;;15.20;;
3891;SDS011;1961;48.194;16.370;2022-10-17T15:19:45;54.00;;;15.40;;
3891;SDS011;1961;48.194;16.370;2022-10-17T15:22:11;54.03;;;15.83;;
3891;SDS011;1961;48.194;16.370;2022-10-17T15:24:40;53.77;;;14.40;;
3891;SDS011;1961;48.194;16.370;2022-10-17T15:27:11;52.67;;;14.30;;
3891;SDS011;1961;48.194;16.370;2022-10-17T15:29:39;52.17;;;15.30;;
3891;SDS011;1961;48.194;16.370;2022-10-17T15:32:05;52.43;;;14.10;;
3891;SDS011;1961;48.194;16.370;2022-10-17T15:34:31;52.87;;;15.17;;
3891;SDS011;1961;48.194;16.370;2022-10-17T15:36:57;62.53;;;21.10;;
3891;SDS011;1961;48.194;16.370;2022-10-17T15:39:23;61.33;;;20.97;;
3891;SDS011;1961;48.194;16.370;2022-10-17T15:41:49;50.90;;;13.93;;
3891;SDS011;1961;48.194;16.370;2022-10-17T15:44:16;49.50;;;13.17;;
3891;SDS011;1961;48.194;16.370;2022-10-17T15:46:42;51.67;;;13.37;;
3891;SDS011;1961;48.194;16.370;2022-10-17T15:49:09;49.70;;;13.83;;
3891;SDS011;1961;48.194;16.370;2022-10-17T15:51:36;54.80;;;14.00;;
3891;SDS011;1961;48.194;16.370;2022-10-17T15:54:02;50.00;;;12.70;;
3891;SDS011;1961;48.194;16.370;2022-10-17T15:59:01;50.90;;;12.73;;
3891;SDS011;1961;48.194;16.370;2022-10-17T16:01:28;48.17;;;13.27;;
3891;SDS011;1961;48.194;16.370;2022-10-17T16:03:55;51.23;;;13.30;;
3891;SDS011;1961;48.194;16.370;2022-10-17T16:06:22;52.43;;;12.00;;
3891;SDS011;1961;48.194;16.370;2022-10-17T16:08:49;48.43;;;12.40;;
3891;SDS011;1961;48.194;16.370;2022-10-17T16:11:35;53.27;;;12.23;;
3891;SDS011;1961;48.194;16.370;2022-10-17T16:14:03;48.60;;;11.03;;
3891;SDS011;1961;48.194;16.370;2022-10-17T16:16:30;48.90;;;12.73;;
3891;SDS011;1961;48.194;16.370;2022-10-17T16:18:57;49.00;;;11.60;;
3891;SDS011;1961;48.194;16.370;2022-10-17T16:21:27;47.13;;;11.83;;
3891;SDS011;1961;48.194;16.370;2022-10-17T16:23:54;51.77;;;12.53;;
3891;SDS011;1961;48.194;16.370;2022-10-17T16:26:20;46.40;;;10.83;;
3891;SDS011;1961;48.194;16.370;2022-10-17T16:28:47;48.90;;;11.40;;